This is the latest recevied weather packets stored in our database for station/object N9XRG. If no packets are shown the sender has not sent any weather packets the latest 1 day(s).
| Time | Temp. | Humidity | Pressure | Rain* | Wind** | Luminosity | Snow |
|---|---|---|---|---|---|---|---|
| 1778083003 | 13.89° C | 41% | 1013.6 hPa | 0 mm | - | 533 W/m² | - |
| 1778082700 | 14.44° C | 40% | 1013.6 hPa | 0 mm | - | 570 W/m² | - |
| 1778080650 | 15° C | 43% | 1013.4 hPa | 0 mm | - | 822 W/m² | - |
| 1778080042 | 13.89° C | 44% | 1013.2 hPa | 0 mm | - | 803 W/m² | - |
| 1778079133 | 14.44° C | 44% | 1013.1 hPa | 0 mm | - | 733 W/m² | - |
| 1778077621 | 13.89° C | 44% | 1013.2 hPa | 0 mm | - | 759 W/m² | - |
| 1778077016 | 13.33° C | 46% | 1012.7 hPa | 0 mm | - | 469 W/m² | - |
| 1778076714 | 12.78° C | 47% | 1012.7 hPa | 0 mm | - | 619 W/m² | - |
| 1778075805 | 12.78° C | 47% | 1012.4 hPa | 0 mm | - | 549 W/m² | - |
| 1778075198 | 12.78° C | 51% | 1012.7 hPa | 0 mm | - | 552 W/m² | - |
| 1778074288 | 11.67° C | 51% | 1012.7 hPa | 0 mm | - | 363 W/m² | - |
| 1778073380 | 11.67° C | 56% | 1012.6 hPa | 0 mm | - | 446 W/m² | - |
| 1778073076 | 11.67° C | 59% | 1012.5 hPa | 0 mm | - | 426 W/m² | - |
| 1778072773 | 11.67° C | 57% | 1012.5 hPa | 0 mm | - | 319 W/m² | - |
| 1778071866 | 10° C | 67% | 1012 hPa | 0 mm | - | 307 W/m² | - |
| 1778070657 | 8.89° C | 71% | 1011.9 hPa | 0 mm | - | 142 W/m² | - |
| 1778068840 | 7.78° C | 83% | 1012.1 hPa | 0 mm | - | 70 W/m² | - |
| 1778068538 | 7.78° C | 86% | 1011.8 hPa | 0 mm | - | 69 W/m² | - |
| 1778068236 | 7.78° C | 90% | 1011.4 hPa | 0 mm | - | 78 W/m² | - |
| 1778067933 | 7.22° C | 95% | 1011.5 hPa | 0 mm | - | 68 W/m² | - |
| 1778067329 | 6.67° C | 96% | 1011.3 hPa | 0 mm | - | 51 W/m² | - |
| 1778066420 | 6.11° C | 96% | 1011.1 hPa | 0 mm | - | 33 W/m² | - |
| 1778065815 | 6.67° C | 96% | 1010.6 hPa | 0 mm | - | 20 W/m² | - |
| 1778064301 | 7.22° C | 96% | 1010.6 hPa | 0 mm | - | 5 W/m² | - |
| 1778063392 | 7.22° C | 96% | 1010.2 hPa | 0 mm | - | 1 W/m² | - |
* Rain latest hour (hover to see other rain measurements)
** Current wind speed in m/s (hover to see current wind gust speed)